sensor_id;sensor_type;location;lat;lon;timestamp;pressure;altitude;pressure_sealevel;temperature;humidity
7170;BME280;3626;42.656;23.312;2023-05-10T00:00:06;94860.41;;;7.87;100.00
7170;BME280;3626;42.656;23.312;2023-05-10T00:00:13;94861.03;;;7.89;100.00
7170;BME280;3626;42.656;23.312;2023-05-10T00:00:19;94863.63;;;7.89;100.00
7170;BME280;3626;42.656;23.312;2023-05-10T00:00:28;94856.06;;;7.88;100.00
7170;BME280;3626;42.656;23.312;2023-05-10T00:00:34;94855.91;;;7.89;100.00
7170;BME280;3626;42.656;23.312;2023-05-10T00:00:40;94862.69;;;7.90;100.00
7170;BME280;3626;42.656;23.312;2023-05-10T00:00:47;94866.19;;;7.89;100.00
7170;BME280;3626;42.656;23.312;2023-05-10T00:00:53;94857.69;;;7.89;100.00
7170;BME280;3626;42.656;23.312;2023-05-10T00:00:59;94862.00;;;7.88;100.00
7170;BME280;3626;42.656;23.312;2023-05-10T00:01:05;94860.25;;;7.89;100.00
7170;BME280;3626;42.656;23.312;2023-05-10T00:01:12;94862.81;;;7.89;100.00
7170;BME280;3626;42.656;23.312;2023-05-10T00:01:21;94851.72;;;7.88;100.00
7170;BME280;3626;42.656;23.312;2023-05-10T00:01:27;94862.00;;;7.88;100.00
7170;BME280;3626;42.656;23.312;2023-05-10T00:01:33;94857.84;;;7.87;100.00
7170;BME280;3626;42.656;23.312;2023-05-10T00:01:39;94857.84;;;7.87;100.00
7170;BME280;3626;42.656;23.312;2023-05-10T00:01:46;94855.25;;;7.87;100.00
7170;BME280;3626;42.656;23.312;2023-05-10T00:01:52;94855.25;;;7.87;100.00
7170;BME280;3626;42.656;23.312;2023-05-10T00:01:58;94856.06;;;7.88;100.00
7170;BME280;3626;42.656;23.312;2023-05-10T00:02:04;94854.31;;;7.88;100.00
7170;BME280;3626;42.656;23.312;2023-05-10T00:02:11;94860.41;;;7.87;100.00
7170;BME280;3626;42.656;23.312;2023-05-10T00:02:17;94858.63;;;7.88;100.00
7170;BME280;3626;42.656;23.312;2023-05-10T00:02:23;94857.84;;;7.87;100.00
7170;BME280;3626;42.656;23.312;2023-05-10T00:02:30;94854.56;;;7.85;100.00
7170;BME280;3626;42.656;23.312;2023-05-10T00:02:36;94858.78;;;7.86;100.00
7170;BME280;3626;42.656;23.312;2023-05-10T00:02:42;94858.78;;;7.86;100.00
7170;BME280;3626;42.656;23.312;2023-05-10T00:02:49;94854.72;;;7.84;100.00
7170;BME280;3626;42.656;23.312;2023-05-10T00:02:55;94854.56;;;7.85;100.00
7170;BME280;3626;42.656;23.312;2023-05-10T00:03:02;94854.56;;;7.85;100.00
7170;BME280;3626;42.656;23.312;2023-05-10T00:03:10;94852.97;;;7.84;100.00
7170;BME280;3626;42.656;23.312;2023-05-10T00:03:16;94857.94;;;7.86;100.00
7170;BME280;3626;42.656;23.312;2023-05-10T00:03:22;94856.22;;;7.86;100.00
7170;BME280;3626;42.656;23.312;2023-05-10T00:03:29;94856.22;;;7.86;100.00
7170;BME280;3626;42.656;23.312;2023-05-10T00:03:35;94854.56;;;7.85;100.00
7170;BME280;3626;42.656;23.312;2023-05-10T00:03:41;94856.22;;;7.86;100.00
7170;BME280;3626;42.656;23.312;2023-05-10T00:03:47;94855.38;;;7.86;100.00
7170;BME280;3626;42.656;23.312;2023-05-10T00:03:53;94856.22;;;7.86;100.00
7170;BME280;3626;42.656;23.312;2023-05-10T00:04:03;94857.03;;;7.87;100.00
7170;BME280;3626;42.656;23.312;2023-05-10T00:04:09;94856.22;;;7.86;100.00
7170;BME280;3626;42.656;23.312;2023-05-10T00:04:15;94852.81;;;7.86;100.00
7170;BME280;3626;42.656;23.312;2023-05-10T00:04:24;94856.34;;;7.85;100.00
7170;BME280;3626;42.656;23.312;2023-05-10T00:04:32;94860.53;;;7.86;100.00
7170;BME280;3626;42.656;23.312;2023-05-10T00:04:38;94857.94;;;7.86;100.00
7170;BME280;3626;42.656;23.312;2023-05-10T00:04:45;94851.22;;;7.85;100.00
7170;BME280;3626;42.656;23.312;2023-05-10T00:04:51;94855.38;;;7.86;100.00
7170;BME280;3626;42.656;23.312;2023-05-10T00:04:57;94854.56;;;7.85;100.00
7170;BME280;3626;42.656;23.312;2023-05-10T00:05:04;94856.22;;;7.86;100.00
7170;BME280;3626;42.656;23.312;2023-05-10T00:05:10;94855.38;;;7.86;100.00
7170;BME280;3626;42.656;23.312;2023-05-10T00:05:17;94852.81;;;7.86;100.00
7170;BME280;3626;42.656;23.312;2023-05-10T00:05:23;94855.38;;;7.86;100.00
7170;BME280;3626;42.656;23.312;2023-05-10T00:05:29;94852.00;;;7.85;100.00
7170;BME280;3626;42.656;23.312;2023-05-10T00:05:35;94852.97;;;7.84;100.00
7170;BME280;3626;42.656;23.312;2023-05-10T00:05:41;94852.97;;;7.84;100.00
7170;BME280;3626;42.656;23.312;2023-05-10T00:05:47;94854.72;;;7.84;100.00
7170;BME280;3626;42.656;23.312;2023-05-10T00:05:53;94847.84;;;7.84;100.00
7170;BME280;3626;42.656;23.312;2023-05-10T00:06:00;94848.09;;;7.81;100.00
7170;BME280;3626;42.656;23.312;2023-05-10T00:06:06;94848.94;;;7.82;100.00
7170;BME280;3626;42.656;23.312;2023-05-10T00:06:12;94854.09;;;7.82;100.00
7170;BME280;3626;42.656;23.312;2023-05-10T00:06:18;94857.59;;;7.81;100.00
7170;BME280;3626;42.656;23.312;2023-05-10T00:06:25;94853.25;;;7.81;100.00
7170;BME280;3626;42.656;23.312;2023-05-10T00:06:31;94851.63;;;7.80;100.00
7170;BME280;3626;42.656;23.312;2023-05-10T00:06:38;94854.09;;;7.82;100.00
7170;BME280;3626;42.656;23.312;2023-05-10T00:06:44;94846.50;;;7.80;100.00
7170;BME280;3626;42.656;23.312;2023-05-10T00:06:50;94851.63;;;7.80;100.00
7170;BME280;3626;42.656;23.312;2023-05-10T00:06:56;94852.44;;;7.81;100.00
7170;BME280;3626;42.656;23.312;2023-05-10T00:07:02;94850.84;;;7.80;100.00
7170;BME280;3626;42.656;23.312;2023-05-10T00:07:08;94845.69;;;7.80;100.00
7170;BME280;3626;42.656;23.312;2023-05-10T00:07:15;94850.84;;;7.80;100.00
7170;BME280;3626;42.656;23.312;2023-05-10T00:07:24;94851.63;;;7.80;100.00
7170;BME280;3626;42.656;23.312;2023-05-10T00:07:32;94848.25;;;7.80;100.00
7170;BME280;3626;42.656;23.312;2023-05-10T00:07:38;94847.31;;;7.81;100.00
7170;BME280;3626;42.656;23.312;2023-05-10T00:07:44;94845.69;;;7.80;100.00
7170;BME280;3626;42.656;23.312;2023-05-10T00:07:50;94855.16;;;7.79;100.00
7170;BME280;3626;42.656;23.312;2023-05-10T00:07:57;94853.41;;;7.80;100.00
7170;BME280;3626;42.656;23.312;2023-05-10T00:08:03;94844.88;;;7.79;100.00
7170;BME280;3626;42.656;23.312;2023-05-10T00:08:11;94851.63;;;7.80;100.00
7170;BME280;3626;42.656;23.312;2023-05-10T00:08:17;94852.59;;;7.79;100.00
7170;BME280;3626;42.656;23.312;2023-05-10T00:08:23;94851.63;;;7.80;100.00
7170;BME280;3626;42.656;23.312;2023-05-10T00:08:29;94850.03;;;7.79;100.00
7170;BME280;3626;42.656;23.312;2023-05-10T00:08:35;94846.66;;;7.79;100.00
7170;BME280;3626;42.656;23.312;2023-05-10T00:08:42;94848.09;;;7.81;100.00
7170;BME280;3626;42.656;23.312;2023-05-10T00:08:50;94842.97;;;7.81;100.00
7170;BME280;3626;42.656;23.312;2023-05-10T00:08:56;94847.19;;;7.82;100.00
7170;BME280;3626;42.656;23.312;2023-05-10T00:09:02;94849.75;;;7.82;100.00
7170;BME280;3626;42.656;23.312;2023-05-10T00:09:12;94849.75;;;7.82;100.00
7170;BME280;3626;42.656;23.312;2023-05-10T00:09:18;94853.13;;;7.83;100.00
7170;BME280;3626;42.656;23.312;2023-05-10T00:09:24;94856.50;;;7.83;100.00
7170;BME280;3626;42.656;23.312;2023-05-10T00:09:30;94845.41;;;7.83;100.00
7170;BME280;3626;42.656;23.312;2023-05-10T00:09:36;94853.13;;;7.83;100.00
7170;BME280;3626;42.656;23.312;2023-05-10T00:09:42;94847.19;;;7.82;100.00
7170;BME280;3626;42.656;23.312;2023-05-10T00:09:48;94847.19;;;7.82;100.00
7170;BME280;3626;42.656;23.312;2023-05-10T00:09:54;94845.53;;;7.81;100.00
7170;BME280;3626;42.656;23.312;2023-05-10T00:10:00;94852.44;;;7.81;100.00
7170;BME280;3626;42.656;23.312;2023-05-10T00:10:07;94849.06;;;7.80;100.00
7170;BME280;3626;42.656;23.312;2023-05-10T00:10:13;94851.63;;;7.80;100.00
7170;BME280;3626;42.656;23.312;2023-05-10T00:10:19;94841.34;;;7.80;100.00
7170;BME280;3626;42.656;23.312;2023-05-10T00:10:25;94848.09;;;7.81;100.00
7170;BME280;3626;42.656;23.312;2023-05-10T00:10:32;94852.44;;;7.81;100.00
7170;BME280;3626;42.656;23.312;2023-05-10T00:10:39;94846.50;;;7.80;100.00
7170;BME280;3626;42.656;23.312;2023-05-10T00:10:46;94847.31;;;7.81;100.00
7170;BME280;3626;42.656;23.312;2023-05-10T00:10:52;94850.69;;;7.81;100.00
7170;BME280;3626;42.656;23.312;2023-05-10T00:10:58;94843.81;;;7.82;100.00
7170;BME280;3626;42.656;23.312;2023-05-10T00:11:05;94848.94;;;7.82;100.00
7170;BME280;3626;42.656;23.312;2023-05-10T00:11:11;94850.56;;;7.83;100.00
7170;BME280;3626;42.656;23.312;2023-05-10T00:11:17;94848.94;;;7.82;100.00
7170;BME280;3626;42.656;23.312;2023-05-10T00:11:23;94846.50;;;7.80;100.00
7170;BME280;3626;42.656;23.312;2023-05-10T00:11:29;94847.19;;;7.82;100.00
7170;BME280;3626;42.656;23.312;2023-05-10T00:11:35;94848.94;;;7.82;100.00
7170;BME280;3626;42.656;23.312;2023-05-10T00:11:41;94849.75;;;7.82;100.00
7170;BME280;3626;42.656;23.312;2023-05-10T00:11:47;94847.97;;;7.83;100.00
7170;BME280;3626;42.656;23.312;2023-05-10T00:11:56;94849.75;;;7.82;100.00
7170;BME280;3626;42.656;23.312;2023-05-10T00:12:06;94848.09;;;7.81;100.00
7170;BME280;3626;42.656;23.312;2023-05-10T00:12:12;94846.50;;;7.80;100.00
7170;BME280;3626;42.656;23.312;2023-05-10T00:12:18;94844.88;;;7.79;100.00
7170;BME280;3626;42.656;23.312;2023-05-10T00:12:24;94848.25;;;7.80;100.00
7170;BME280;3626;42.656;23.312;2023-05-10T00:12:30;94838.78;;;7.80;100.00
7170;BME280;3626;42.656;23.312;2023-05-10T00:12:36;94844.88;;;7.79;100.00
7170;BME280;3626;42.656;23.312;2023-05-10T00:12:42;94853.41;;;7.80;100.00
7170;BME280;3626;42.656;23.312;2023-05-10T00:12:48;94845.69;;;7.80;100.00
7170;BME280;3626;42.656;23.312;2023-05-10T00:12:54;94847.47;;;7.79;100.00
7170;BME280;3626;42.656;23.312;2023-05-10T00:13:01;94843.28;;;7.78;100.00
7170;BME280;3626;42.656;23.312;2023-05-10T00:13:07;94842.31;;;7.79;100.00
7170;BME280;3626;42.656;23.312;2023-05-10T00:13:13;94846.66;;;7.79;100.00
7170;BME280;3626;42.656;23.312;2023-05-10T00:13:22;94843.28;;;7.78;100.00
7170;BME280;3626;42.656;23.312;2023-05-10T00:13:28;94843.41;;;7.76;100.00
7170;BME280;3626;42.656;23.312;2023-05-10T00:13:34;94840.03;;;7.76;100.00
7170;BME280;3626;42.656;23.312;2023-05-10T00:13:40;94844.22;;;7.77;100.00
7170;BME280;3626;42.656;23.312;2023-05-10T00:13:46;94841.00;;;7.75;100.00
7170;BME280;3626;42.656;23.312;2023-05-10T00:13:52;94836.00;;;7.73;100.00
7170;BME280;3626;42.656;23.312;2023-05-10T00:13:58;94845.16;;;7.76;100.00
7170;BME280;3626;42.656;23.312;2023-05-10T00:14:04;94841.00;;;7.75;100.00
7170;BME280;3626;42.656;23.312;2023-05-10T00:14:11;94850.31;;;7.76;100.00
7170;BME280;3626;42.656;23.312;2023-05-10T00:14:17;94844.50;;;7.74;100.00
7170;BME280;3626;42.656;23.312;2023-05-10T00:14:23;94841.94;;;7.74;100.00
7170;BME280;3626;42.656;23.312;2023-05-10T00:14:29;94847.88;;;7.74;100.00
7170;BME280;3626;42.656;23.312;2023-05-10T00:14:35;94840.19;;;7.74;100.00
7170;BME280;3626;42.656;23.312;2023-05-10T00:14:44;94849.66;;;7.74;100.00
7170;BME280;3626;42.656;23.312;2023-05-10T00:14:50;94847.09;;;7.74;100.00
7170;BME280;3626;42.656;23.312;2023-05-10T00:14:57;94841.16;;;7.73;100.00
7170;BME280;3626;42.656;23.312;2023-05-10T00:15:03;94839.50;;;7.72;100.00
7170;BME280;3626;42.656;23.312;2023-05-10T00:15:10;94842.88;;;7.73;100.00
7170;BME280;3626;42.656;23.312;2023-05-10T00:15:16;94848.00;;;7.73;100.00
7170;BME280;3626;42.656;23.312;2023-05-10T00:15:22;94841.16;;;7.73;100.00
7170;BME280;3626;42.656;23.312;2023-05-10T00:15:28;94839.50;;;7.72;100.00
7170;BME280;3626;42.656;23.312;2023-05-10T00:15:36;94841.94;;;7.74;100.00
7170;BME280;3626;42.656;23.312;2023-05-10T00:15:42;94838.69;;;7.72;100.00
7170;BME280;3626;42.656;23.312;2023-05-10T00:15:48;94846.28;;;7.73;100.00
7170;BME280;3626;42.656;23.312;2023-05-10T00:15:54;94841.94;;;7.74;100.00
7170;BME280;3626;42.656;23.312;2023-05-10T00:16:00;94839.38;;;7.74;100.00
7170;BME280;3626;42.656;23.312;2023-05-10T00:16:09;94841.94;;;7.74;100.00
7170;BME280;3626;42.656;23.312;2023-05-10T00:16:15;94841.00;;;7.75;100.00
7170;BME280;3626;42.656;23.312;2023-05-10T00:16:21;94845.31;;;7.74;100.00
7170;BME280;3626;42.656;23.312;2023-05-10T00:16:27;94837.63;;;7.74;100.00
7170;BME280;3626;42.656;23.312;2023-05-10T00:16:34;94837.63;;;7.74;100.00
7170;BME280;3626;42.656;23.312;2023-05-10T00:16:40;94837.63;;;7.74;100.00
7170;BME280;3626;42.656;23.312;2023-05-10T00:16:46;94835.31;;;7.71;100.00
7170;BME280;3626;42.656;23.312;2023-05-10T00:16:52;94839.66;;;7.71;100.00
7170;BME280;3626;42.656;23.312;2023-05-10T00:16:58;94839.66;;;7.71;100.00
7170;BME280;3626;42.656;23.312;2023-05-10T00:17:04;94839.66;;;7.71;100.00
7170;BME280;3626;42.656;23.312;2023-05-10T00:17:10;94836.44;;;7.69;100.00
7170;BME280;3626;42.656;23.312;2023-05-10T00:17:16;94832.91;;;7.70;100.00
7170;BME280;3626;42.656;23.312;2023-05-10T00:17:22;94838.84;;;7.70;100.00
7170;BME280;3626;42.656;23.312;2023-05-10T00:17:28;94841.56;;;7.69;100.00
7170;BME280;3626;42.656;23.312;2023-05-10T00:17:35;94842.38;;;7.69;100.00
7170;BME280;3626;42.656;23.312;2023-05-10T00:17:44;94838.84;;;7.70;100.00
7170;BME280;3626;42.656;23.312;2023-05-10T00:17:50;94843.84;;;7.72;100.00
7170;BME280;3626;42.656;23.312;2023-05-10T00:17:56;94843.84;;;7.72;100.00
7170;BME280;3626;42.656;23.312;2023-05-10T00:18:03;94833.56;;;7.72;100.00
7170;BME280;3626;42.656;23.312;2023-05-10T00:18:09;94842.06;;;7.72;100.00
7170;BME280;3626;42.656;23.312;2023-05-10T00:18:15;94843.84;;;7.72;100.00
7170;BME280;3626;42.656;23.312;2023-05-10T00:18:21;94843.03;;;7.71;100.00
7170;BME280;3626;42.656;23.312;2023-05-10T00:18:27;94843.03;;;7.71;100.00
7170;BME280;3626;42.656;23.312;2023-05-10T00:18:33;94838.03;;;7.70;100.00
7170;BME280;3626;42.656;23.312;2023-05-10T00:18:39;94843.19;;;7.70;100.00
7170;BME280;3626;42.656;23.312;2023-05-10T00:18:46;94841.41;;;7.70;100.00
7170;BME280;3626;42.656;23.312;2023-05-10T00:18:52;94836.28;;;7.70;100.00
7170;BME280;3626;42.656;23.312;2023-05-10T00:18:58;94842.22;;;7.71;100.00
7170;BME280;3626;42.656;23.312;2023-05-10T00:19:05;94834.53;;;7.71;100.00
7170;BME280;3626;42.656;23.312;2023-05-10T00:19:27;94829.66;;;7.68;100.00
7170;BME280;3626;42.656;23.312;2023-05-10T00:19:40;94837.25;;;7.69;100.00
7170;BME280;3626;42.656;23.312;2023-05-10T00:19:46;94833.03;;;7.68;100.00
7170;BME280;3626;42.656;23.312;2023-05-10T00:19:52;94840.75;;;7.68;100.00
7170;BME280;3626;42.656;23.312;2023-05-10T00:19:57;94835.75;;;7.67;100.00
7170;BME280;3626;42.656;23.312;2023-05-10T00:20:04;94834.94;;;7.66;100.00
7170;BME280;3626;42.656;23.312;2023-05-10T00:20:11;94836.56;;;7.67;100.00
7170;BME280;3626;42.656;23.312;2023-05-10T00:20:16;94837.38;;;7.68;100.00
7170;BME280;3626;42.656;23.312;2023-05-10T00:20:22;94839.94;;;7.68;100.00
7170;BME280;3626;42.656;23.312;2023-05-10T00:20:28;94837.38;;;7.68;100.00
7170;BME280;3626;42.656;23.312;2023-05-10T00:20:34;94839.94;;;7.68;100.00
7170;BME280;3626;42.656;23.312;2023-05-10T00:20:40;94842.50;;;7.68;100.00
7170;BME280;3626;42.656;23.312;2023-05-10T00:20:45;94840.91;;;7.67;100.00
7170;BME280;3626;42.656;23.312;2023-05-10T00:20:52;94841.69;;;7.67;100.00
7170;BME280;3626;42.656;23.312;2023-05-10T00:20:58;94839.94;;;7.68;100.00
7170;BME280;3626;42.656;23.312;2023-05-10T00:21:05;94836.44;;;7.69;100.00
7170;BME280;3626;42.656;23.312;2023-05-10T00:21:10;94841.56;;;7.69;100.00
7170;BME280;3626;42.656;23.312;2023-05-10T00:21:16;94830.34;;;7.70;100.00
7170;BME280;3626;42.656;23.312;2023-05-10T00:21:22;94837.91;;;7.71;100.00
7170;BME280;3626;42.656;23.312;2023-05-10T00:21:28;94836.94;;;7.72;100.00
7170;BME280;3626;42.656;23.312;2023-05-10T00:21:33;94836.94;;;7.72;100.00
7170;BME280;3626;42.656;23.312;2023-05-10T00:21:39;94840.31;;;7.73;100.00
7170;BME280;3626;42.656;23.312;2023-05-10T00:21:45;94838.69;;;7.72;100.00
7170;BME280;3626;42.656;23.312;2023-05-10T00:21:51;94839.50;;;7.72;100.00
7170;BME280;3626;42.656;23.312;2023-05-10T00:21:57;94844.63;;;7.72;100.00
7170;BME280;3626;42.656;23.312;2023-05-10T00:22:02;94835.16;;;7.73;100.00
7170;BME280;3626;42.656;23.312;2023-05-10T00:22:08;94840.31;;;7.73;100.00
7170;BME280;3626;42.656;23.312;2023-05-10T00:22:14;94843.84;;;7.72;100.00
7170;BME280;3626;42.656;23.312;2023-05-10T00:22:20;94837.09;;;7.71;100.00
7170;BME280;3626;42.656;23.312;2023-05-10T00:22:26;94838.69;;;7.72;100.00
7170;BME280;3626;42.656;23.312;2023-05-10T00:22:33;94838.69;;;7.72;100.00
7170;BME280;3626;42.656;23.312;2023-05-10T00:22:39;94834.38;;;7.72;100.00
7170;BME280;3626;42.656;23.312;2023-05-10T00:22:45;94836.94;;;7.72;100.00
7170;BME280;3626;42.656;23.312;2023-05-10T00:22:51;94837.91;;;7.71;100.00
7170;BME280;3626;42.656;23.312;2023-05-10T00:22:57;94838.69;;;7.72;100.00
7170;BME280;3626;42.656;23.312;2023-05-10T00:23:03;94838.69;;;7.72;100.00
7170;BME280;3626;42.656;23.312;2023-05-10T00:23:09;94841.25;;;7.72;100.00
7170;BME280;3626;42.656;23.312;2023-05-10T00:23:14;94838.69;;;7.72;100.00
7170;BME280;3626;42.656;23.312;2023-05-10T00:23:20;94835.16;;;7.73;100.00
7170;BME280;3626;42.656;23.312;2023-05-10T00:23:26;94834.38;;;7.72;100.00
7170;BME280;3626;42.656;23.312;2023-05-10T00:23:32;94834.38;;;7.72;100.00
7170;BME280;3626;42.656;23.312;2023-05-10T00:23:38;94834.38;;;7.72;100.00
7170;BME280;3626;42.656;23.312;2023-05-10T00:23:44;94838.84;;;7.70;100.00
7170;BME280;3626;42.656;23.312;2023-05-10T00:23:51;94836.28;;;7.70;100.00
7170;BME280;3626;42.656;23.312;2023-05-10T00:23:57;94837.09;;;7.71;100.00
7170;BME280;3626;42.656;23.312;2023-05-10T00:24:03;94837.09;;;7.71;100.00
7170;BME280;3626;42.656;23.312;2023-05-10T00:24:09;94838.69;;;7.72;100.00
7170;BME280;3626;42.656;23.312;2023-05-10T00:24:15;94838.69;;;7.72;100.00
7170;BME280;3626;42.656;23.312;2023-05-10T00:24:20;94833.56;;;7.72;100.00
7170;BME280;3626;42.656;23.312;2023-05-10T00:24:26;94833.56;;;7.72;100.00
7170;BME280;3626;42.656;23.312;2023-05-10T00:24:32;94837.72;;;7.73;100.00
7170;BME280;3626;42.656;23.312;2023-05-10T00:24:38;94837.91;;;7.71;100.00
7170;BME280;3626;42.656;23.312;2023-05-10T00:24:44;94835.16;;;7.73;100.00
7170;BME280;3626;42.656;23.312;2023-05-10T00:24:49;94836.13;;;7.72;100.00
7170;BME280;3626;42.656;23.312;2023-05-10T00:24:55;94841.16;;;7.73;100.00
7170;BME280;3626;42.656;23.312;2023-05-10T00:25:01;94836.00;;;7.73;100.00
7170;BME280;3626;42.656;23.312;2023-05-10T00:25:08;94837.72;;;7.73;100.00
7170;BME280;3626;42.656;23.312;2023-05-10T00:25:14;94841.16;;;7.73;100.00
7170;BME280;3626;42.656;23.312;2023-05-10T00:25:20;94836.00;;;7.73;100.00
7170;BME280;3626;42.656;23.312;2023-05-10T00:25:27;94836.00;;;7.73;100.00
7170;BME280;3626;42.656;23.312;2023-05-10T00:25:32;94830.03;;;7.73;100.00
7170;BME280;3626;42.656;23.312;2023-05-10T00:25:38;94836.81;;;7.74;100.00
7170;BME280;3626;42.656;23.312;2023-05-10T00:25:44;94841.00;;;7.75;100.00
7170;BME280;3626;42.656;23.312;2023-05-10T00:25:50;94838.41;;;7.75;100.00
7170;BME280;3626;42.656;23.312;2023-05-10T00:25:56;94838.41;;;7.75;100.00
7170;BME280;3626;42.656;23.312;2023-05-10T00:26:02;94826.38;;;7.75;100.00
7170;BME280;3626;42.656;23.312;2023-05-10T00:26:08;94836.81;;;7.74;100.00
7170;BME280;3626;42.656;23.312;2023-05-10T00:26:13;94831.66;;;7.74;100.00
7170;BME280;3626;42.656;23.312;2023-05-10T00:26:21;94835.16;;;7.73;100.00
7170;BME280;3626;42.656;23.312;2023-05-10T00:26:27;94838.56;;;7.73;100.00
7170;BME280;3626;42.656;23.312;2023-05-10T00:26:33;94837.09;;;7.71;100.00
7170;BME280;3626;42.656;23.312;2023-05-10T00:26:39;94832.75;;;7.71;100.00
7170;BME280;3626;42.656;23.312;2023-05-10T00:26:45;94832.75;;;7.71;100.00
7170;BME280;3626;42.656;23.312;2023-05-10T00:26:51;94835.47;;;7.70;100.00
7170;BME280;3626;42.656;23.312;2023-05-10T00:26:56;94833.72;;;7.70;100.00
7170;BME280;3626;42.656;23.312;2023-05-10T00:27:02;94832.91;;;7.70;100.00
7170;BME280;3626;42.656;23.312;2023-05-10T00:27:09;94837.09;;;7.71;100.00
7170;BME280;3626;42.656;23.312;2023-05-10T00:27:15;94837.09;;;7.71;100.00
7170;BME280;3626;42.656;23.312;2023-05-10T00:27:20;94835.47;;;7.70;100.00
7170;BME280;3626;42.656;23.312;2023-05-10T00:27:26;94835.47;;;7.70;100.00
7170;BME280;3626;42.656;23.312;2023-05-10T00:27:32;94836.44;;;7.69;100.00
7170;BME280;3626;42.656;23.312;2023-05-10T00:27:38;94833.03;;;7.68;100.00
7170;BME280;3626;42.656;23.312;2023-05-10T00:27:44;94835.59;;;7.68;100.00
7170;BME280;3626;42.656;23.312;2023-05-10T00:27:49;94833.03;;;7.68;100.00
7170;BME280;3626;42.656;23.312;2023-05-10T00:27:55;94834.00;;;7.67;100.00
7170;BME280;3626;42.656;23.312;2023-05-10T00:28:02;94838.31;;;7.67;100.00
7170;BME280;3626;42.656;23.312;2023-05-10T00:28:08;94834.94;;;7.66;100.00
7170;BME280;3626;42.656;23.312;2023-05-10T00:28:14;94832.38;;;7.66;100.00
7170;BME280;3626;42.656;23.312;2023-05-10T00:28:20;94834.94;;;7.66;100.00
7170;BME280;3626;42.656;23.312;2023-05-10T00:28:27;94836.72;;;7.66;100.00
7170;BME280;3626;42.656;23.312;2023-05-10T00:28:33;94837.66;;;7.65;100.00
7170;BME280;3626;42.656;23.312;2023-05-10T00:28:39;94837.53;;;7.66;100.00
7170;BME280;3626;42.656;23.312;2023-05-10T00:28:44;94836.72;;;7.66;100.00
7170;BME280;3626;42.656;23.312;2023-05-10T00:28:50;94837.66;;;7.65;100.00
7170;BME280;3626;42.656;23.312;2023-05-10T00:28:56;94836.72;;;7.66;100.00
7170;BME280;3626;42.656;23.312;2023-05-10T00:29:02;94835.91;;;7.65;100.00
7170;BME280;3626;42.656;23.312;2023-05-10T00:29:09;94834.94;;;7.66;100.00
7170;BME280;3626;42.656;23.312;2023-05-10T00:29:14;94839.28;;;7.66;100.00
7170;BME280;3626;42.656;23.312;2023-05-10T00:29:20;94842.66;;;7.66;100.00
7170;BME280;3626;42.656;23.312;2023-05-10T00:29:26;94833.34;;;7.65;100.00
7170;BME280;3626;42.656;23.312;2023-05-10T00:29:33;94835.91;;;7.65;100.00
7170;BME280;3626;42.656;23.312;2023-05-10T00:29:39;94832.53;;;7.65;100.00
7170;BME280;3626;42.656;23.312;2023-05-10T00:29:45;94837.66;;;7.65;100.00
7170;BME280;3626;42.656;23.312;2023-05-10T00:29:51;94832.53;;;7.65;100.00
7170;BME280;3626;42.656;23.312;2023-05-10T00:29:57;94832.53;;;7.65;100.00
7170;BME280;3626;42.656;23.312;2023-05-10T00:30:04;94837.66;;;7.65;100.00
7170;BME280;3626;42.656;23.312;2023-05-10T00:30:10;94835.22;;;7.63;100.00
7170;BME280;3626;42.656;23.312;2023-05-10T00:30:16;94832.53;;;7.65;100.00
7170;BME280;3626;42.656;23.312;2023-05-10T00:30:22;94834.28;;;7.64;100.00
7170;BME280;3626;42.656;23.312;2023-05-10T00:30:28;94831.69;;;7.64;100.00
7170;BME280;3626;42.656;23.312;2023-05-10T00:30:35;94838.47;;;7.65;100.00
7170;BME280;3626;42.656;23.312;2023-05-10T00:30:41;94833.34;;;7.65;100.00
7170;BME280;3626;42.656;23.312;2023-05-10T00:30:48;94837.66;;;7.65;100.00
7170;BME280;3626;42.656;23.312;2023-05-10T00:30:54;94835.22;;;7.63;100.00
7170;BME280;3626;42.656;23.312;2023-05-10T00:31:00;94837.00;;;7.63;100.00
7170;BME280;3626;42.656;23.312;2023-05-10T00:31:05;94840.53;;;7.62;100.00
7170;BME280;3626;42.656;23.312;2023-05-10T00:31:11;94838.75;;;7.62;100.00
7170;BME280;3626;42.656;23.312;2023-05-10T00:31:17;94834.56;;;7.61;100.00
7170;BME280;3626;42.656;23.312;2023-05-10T00:31:23;94839.72;;;7.61;100.00
7170;BME280;3626;42.656;23.312;2023-05-10T00:31:28;94836.34;;;7.61;100.00
7170;BME280;3626;42.656;23.312;2023-05-10T00:31:34;94829.44;;;7.61;100.00
7170;BME280;3626;42.656;23.312;2023-05-10T00:31:40;94836.47;;;7.59;100.00
7170;BME280;3626;42.656;23.312;2023-05-10T00:31:46;94832.44;;;7.57;100.00
7170;BME280;3626;42.656;23.312;2023-05-10T00:31:51;94832.56;;;7.55;100.00
7170;BME280;3626;42.656;23.312;2023-05-10T00:31:57;94832.56;;;7.55;100.00
7170;BME280;3626;42.656;23.312;2023-05-10T00:32:03;94832.56;;;7.55;100.00
7170;BME280;3626;42.656;23.312;2023-05-10T00:32:09;94839.47;;;7.55;100.00
7170;BME280;3626;42.656;23.312;2023-05-10T00:32:16;94826.63;;;7.55;100.00
7170;BME280;3626;42.656;23.312;2023-05-10T00:32:22;94830.78;;;7.56;100.00
7170;BME280;3626;42.656;23.312;2023-05-10T00:32:28;94835.13;;;7.55;100.00
7170;BME280;3626;42.656;23.312;2023-05-10T00:32:33;94830.00;;;7.55;100.00
7170;BME280;3626;42.656;23.312;2023-05-10T00:32:39;94835.94;;;7.56;100.00
7170;BME280;3626;42.656;23.312;2023-05-10T00:32:45;94831.63;;;7.56;100.00
7170;BME280;3626;42.656;23.312;2023-05-10T00:32:53;94833.38;;;7.56;100.00
7170;BME280;3626;42.656;23.312;2023-05-10T00:32:59;94833.38;;;7.56;100.00
7170;BME280;3626;42.656;23.312;2023-05-10T00:33:04;94832.56;;;7.55;100.00
7170;BME280;3626;42.656;23.312;2023-05-10T00:33:10;94836.88;;;7.55;100.00
7170;BME280;3626;42.656;23.312;2023-05-10T00:33:17;94830.94;;;7.54;100.00
7170;BME280;3626;42.656;23.312;2023-05-10T00:33:23;94826.63;;;7.55;100.00
7170;BME280;3626;42.656;23.312;2023-05-10T00:33:29;94836.88;;;7.55;100.00
7170;BME280;3626;42.656;23.312;2023-05-10T00:33:35;94828.38;;;7.54;100.00
7170;BME280;3626;42.656;23.312;2023-05-10T00:33:41;94831.75;;;7.55;100.00
7170;BME280;3626;42.656;23.312;2023-05-10T00:33:47;94827.56;;;7.54;100.00
7170;BME280;3626;42.656;23.312;2023-05-10T00:33:53;94828.38;;;7.54;100.00
7170;BME280;3626;42.656;23.312;2023-05-10T00:33:59;94831.75;;;7.55;100.00